Terminal Aerodrome Forecast
Issued by NWS

Home | Current Version | Previous Version | Text Only | Print | Product List | Glossary On
Versions: 1 2 3 4 5 6 7 8 9 10 11 12 13 14 15 16 17 18 19 20 21 22 23 24
000
FTUS46 KPDT 221458 AAA
TAFDLS
TAF AMD
KDLS 221458Z 2215/2312 VRB03KT 2SM BR OVC002
      TEMPO 2215/2216 1/2SM FG VV002
     FM221600 31004KT 3SM BR VCSH BKN005 BKN030 OVC040
      TEMPO 2216/2217 1SM -SHRA BR BKN002 OVC025
     FM221700 31005KT P6SM -SHRA BKN040 OVC050
     FM221900 31006KT P6SM SCT050
     FM230200 31003KT P6SM FEW050=

USA.gov is the U.S. government's official web portal to all federal, state and local government web resources and services.